Main page
METAR-TAF:

METAR-TAF

Airports :

Caracas, Venezuela

Simón Bolívar International Airport

latitude: 10-36N, longitude: 066-59W, elevation: 43 m

Current weather observation

The report was made 28 minutes ago, at 01:00 UTC
Calm wind
Temperature 28°C
Humidity 62%
Pressure 1011 hPa
Visibility 10 km or more
Broken clouds at a height of 1300 ft

METAR: SVMI 290100Z 00000KT 9999 BKN013 28/20 Q1011

Time: 21:28 (01:28 UTC)

Forecast

The report was made 3 hours and 28 minutes ago, at 22:00 UTC
Forecast valid from 29 at 00 UTC to 30 at 00 UTC
Wind 10 kt from the East
Visibility 10 km or more
Few clouds at a height of 1600 ft
Scattered clouds at a height of 1600 ft
Becoming
from 29 at 00 UTC to 29 at 04 UTC
Wind 5 kt from the Northeast
Visibility: 9000 m
Broken clouds at a height of 1600 ft
in the vicinity, drizzle

TAF: SVMI 282200Z 2900/3000 09010KT 9999 FEW016 SCT016 TX31/18Z TN24/08Z BECMG 2900/2904 05005KT 9000 VCDZ BKN016

Weather observations and forecasts of more than 4000 airports (METAR and TAF reports).

The available stations are represented by yellow and red dots on the map.

Hover mouse over dot to see the name of the station.

Then click to see weather observations and forecasts.

To change the map : click on the green buttons with a black cross to zoom in, on the green button with a dash to zoom out, or on the green arrows for adjacent maps.


METAR-TAF: